Time;durP1;ratioP1;P1;durP2;ratioP2;P2;SDS_P1;SDS_P2;PMS_P1;PMS_P2;Temp;Humidity;BMP_temperature;BMP_pressure;BME280_temperature;BME280_humidity;BME280_pressure;Samples;Min_cycle;Max_cycle;Signal;HPM_P1;HPM_P2
2021/08/25 00:00:58;;;;;;;0.52;0.52;;;;;;;10.56;89.54;102052.19;4879527;29;20052;-86
2021/08/25 00:03:31;;;;;;;1.88;0.70;;;;;;;10.48;90.15;102056.16;4877494;29;20494;-85
2021/08/25 00:05:59;;;;;;;1.65;0.70;;;;;;;10.40;89.83;102044.84;4889921;29;20068;-85
2021/08/25 00:08:28;;;;;;;1.15;0.65;;;;;;;10.40;89.21;102040.25;4879920;29;20049;-85
2021/08/25 00:11:02;;;;;;;0.98;0.63;;;;;;;10.42;89.86;102040.00;4882805;29;20422;-85
2021/08/25 00:13:30;;;;;;;5.15;0.80;;;;;;;10.41;89.76;102035.59;4870035;29;20061;-85
2021/08/25 00:16:04;;;;;;;7.93;0.80;;;;;;;10.30;89.36;102010.06;4885364;29;20063;-85
2021/08/25 00:18:37;;;;;;;3.97;0.73;;;;;;;10.49;89.34;102036.03;4876622;29;20056;-85
2021/08/25 00:21:11;;;;;;;13.52;1.27;;;;;;;10.45;88.74;102023.16;4888675;29;20056;-86
2021/08/25 00:23:44;;;;;;;9.43;1.55;;;;;;;10.46;88.03;102028.34;4878902;29;20064;-85
2021/08/25 00:26:14;;;;;;;1.33;0.70;;;;;;;10.31;87.86;101998.94;4894075;29;20053;-85
2021/08/25 00:28:54;;;;;;;1.20;0.75;;;;;;;10.41;88.74;102025.53;4879633;29;20052;-85
2021/08/25 00:31:27;;;;;;;6.63;0.80;;;;;;;10.35;89.04;102018.38;4889219;29;20060;-85
2021/08/25 00:33:56;;;;;;;0.65;0.65;;;;;;;10.25;89.78;102009.97;4879715;29;20064;-85
2021/08/25 00:36:29;;;;;;;1.60;0.70;;;;;;;10.26;90.00;102012.47;4883902;29;20064;-85
2021/08/25 00:39:04;;;;;;;0.70;0.70;;;;;;;10.25;90.32;102008.09;4890378;29;20041;-85
2021/08/25 00:41:34;;;;;;;0.70;0.65;;;;;;;10.19;90.57;101996.31;4904585;29;20061;-85
2021/08/25 00:44:02;;;;;;;0.70;0.60;;;;;;;10.19;90.91;101992.75;4892683;29;20060;-85
2021/08/25 00:46:37;;;;;;;1.20;0.70;;;;;;;10.27;90.92;102005.13;4905292;29;20061;-86
2021/08/25 00:49:11;;;;;;;0.88;0.70;;;;;;;10.29;91.10;101992.94;4874395;29;20060;-85
2021/08/25 00:51:39;;;;;;;0.73;0.70;;;;;;;10.33;90.93;101999.53;4871822;29;20061;-85
2021/08/25 00:54:14;;;;;;;1.17;0.70;;;;;;;10.33;90.31;101975.06;4900846;29;20053;-86
2021/08/25 00:56:44;;;;;;;0.85;0.70;;;;;;;10.40;90.19;101974.09;4890941;29;20402;-85
2021/08/25 00:59:19;;;;;;;0.70;0.70;;;;;;;10.47;89.56;101977.50;4890244;29;20040;-86
2021/08/25 01:01:58;;;;;;;1.25;0.70;;;;;;;10.46;89.75;101973.09;4883171;29;20057;-85
2021/08/25 01:04:33;;;;;;;0.68;0.65;;;;;;;10.43;90.36;101971.69;4890708;29;20049;-86
2021/08/25 01:07:02;;;;;;;1.25;0.75;;;;;;;10.50;90.22;101977.81;4895461;29;20064;-85
2021/08/25 01:09:31;;;;;;;1.45;0.90;;;;;;;10.45;91.48;101980.44;4881281;29;20049;-85
2021/08/25 01:12:01;;;;;;;0.85;0.68;;;;;;;10.52;91.50;101972.94;4892449;29;20052;-85
2021/08/25 01:14:29;;;;;;;0.88;0.65;;;;;;;10.52;90.21;101975.69;4902983;29;20911;-85
2021/08/25 01:16:58;;;;;;;1.58;0.70;;;;;;;10.49;89.45;101976.16;4899326;29;20061;-86
2021/08/25 01:19:37;;;;;;;1.13;0.70;;;;;;;10.44;90.85;101969.78;4871987;29;20421;-85
2021/08/25 01:22:06;;;;;;;1.00;0.60;;;;;;;10.38;89.86;101961.56;4881507;29;20060;-84
2021/08/25 01:24:39;;;;;;;0.65;0.60;;;;;;;10.39;92.28;101967.81;4887073;29;20056;-85
2021/08/25 01:27:11;;;;;;;0.80;0.70;;;;;;;10.24;90.52;101952.03;4909121;29;20056;-85
2021/08/25 01:29:47;;;;;;;0.73;0.67;;;;;;;10.26;91.29;101949.06;4894152;29;20061;-85
2021/08/25 01:32:17;;;;;;;0.70;0.63;;;;;;;10.29;90.62;101946.69;4882591;29;20305;-85
2021/08/25 01:34:53;;;;;;;1.35;0.80;;;;;;;10.26;90.79;101949.06;4911374;29;20060;-85
2021/08/25 01:37:27;;;;;;;0.65;0.60;;;;;;;10.17;91.94;101937.78;4887348;29;20045;-85
2021/08/25 01:40:01;;;;;;;0.73;0.60;;;;;;;10.02;92.07;101928.25;4890179;29;20052;-85
2021/08/25 01:42:34;;;;;;;0.60;0.60;;;;;;;10.16;91.66;101933.41;4899569;29;20060;-85
2021/08/25 01:45:09;;;;;;;1.33;0.60;;;;;;;10.23;91.36;101928.59;4891294;29;20056;-85
2021/08/25 01:47:43;;;;;;;1.08;0.68;;;;;;;10.22;91.19;101921.53;4884223;29;20052;-85
2021/08/25 01:50:16;;;;;;;1.67;0.70;;;;;;;10.20;90.57;101916.34;4881952;29;20465;-85
2021/08/25 01:52:44;;;;;;;0.70;0.60;;;;;;;10.24;90.74;101913.94;4884877;29;20045;-85
2021/08/25 01:55:12;;;;;;;2.20;0.75;;;;;;;10.23;90.01;101909.56;4895555;29;20061;-85
2021/08/25 01:57:45;;;;;;;0.90;0.70;;;;;;;10.23;90.33;101912.28;4896177;29;20059;-85
2021/08/25 02:00:20;;;;;;;0.70;0.63;;;;;;;10.20;90.73;101908.19;4892107;29;20052;-85
2021/08/25 02:02:48;;;;;;;0.75;0.70;;;;;;;10.17;90.95;101905.94;4893803;29;20065;-85
2021/08/25 02:05:21;;;;;;;1.38;0.75;;;;;;;10.11;92.52;101898.78;4893647;29;20052;-85
2021/08/25 02:07:50;;;;;;;0.60;0.60;;;;;;;10.10;92.33;101902.56;4900361;29;20147;-85
2021/08/25 02:10:18;;;;;;;0.77;0.73;;;;;;;10.12;91.92;101899.59;4900316;29;20049;-84
2021/08/25 02:12:51;;;;;;;0.80;0.60;;;;;;;10.01;92.49;101880.41;4906032;29;20425;-85
2021/08/25 02:15:20;;;;;;;0.60;0.60;;;;;;;10.06;93.15;101887.81;4900189;29;20413;-85
2021/08/25 02:17:54;;;;;;;1.00;0.75;;;;;;;10.18;91.46;101896.72;4915492;29;20052;-85
2021/08/25 02:20:27;;;;;;;1.00;0.70;;;;;;;10.18;92.08;101894.00;4896858;29;20053;-85
2021/08/25 02:23:00;;;;;;;1.33;0.80;;;;;;;10.26;91.38;101892.78;4892702;29;20049;-85
2021/08/25 02:25:28;;;;;;;1.60;0.88;;;;;;;10.28;92.14;101890.59;4895932;29;20716;-85
2021/08/25 02:28:01;;;;;;;0.65;0.65;;;;;;;10.33;91.19;101889.84;4880661;29;20057;-85
2021/08/25 02:30:37;;;;;;;0.80;0.60;;;;;;;10.33;91.87;101887.13;4891091;29;20049;-84
2021/08/25 02:33:10;;;;;;;0.75;0.70;;;;;;;10.32;92.43;101885.50;4896051;29;20049;-84
2021/08/25 02:35:38;;;;;;;0.70;0.70;;;;;;;10.33;91.25;101885.25;4909902;29;20528;-85
2021/08/25 02:38:12;;;;;;;1.25;0.80;;;;;;;10.31;92.30;101870.25;4890479;29;20056;-85
2021/08/25 02:40:45;;;;;;;0.80;0.68;;;;;;;10.35;92.24;101872.25;4887190;29;20052;-85
2021/08/25 02:43:18;;;;;;;1.02;0.70;;;;;;;10.37;92.59;101872.84;4889185;29;20815;-85
2021/08/25 02:45:48;;;;;;;0.60;0.60;;;;;;;10.41;92.29;101866.88;4901595;29;20057;-84
2021/08/25 02:48:21;;;;;;;1.10;0.85;;;;;;;10.41;92.29;101875.06;4881244;29;20064;-84
2021/08/25 02:50:55;;;;;;;0.90;0.70;;;;;;;10.38;93.18;101862.75;4881395;29;20041;-84
2021/08/25 02:53:23;;;;;;;1.13;0.50;;;;;;;10.49;91.86;101870.00;4882816;29;20068;-84
2021/08/25 02:55:56;;;;;;;1.90;0.60;;;;;;;10.46;92.77;101862.34;4873190;29;20045;-85
2021/08/25 02:58:29;;;;;;;0.90;0.60;;;;;;;10.58;90.81;101853.25;4891554;29;20053;-84
2021/08/25 03:01:15;;;;;;;1.05;0.70;;;;;;;10.64;91.30;101847.63;4881849;29;20041;-85
2021/08/25 03:03:43;;;;;;;0.82;0.60;;;;;;;10.67;88.93;101843.56;4871630;29;20049;-85
2021/08/25 03:06:13;;;;;;;0.55;0.55;;;;;;;10.93;85.89;101843.91;4891286;29;20091;-85
2021/08/25 03:08:47;;;;;;;1.08;0.60;;;;;;;10.94;85.38;101838.22;4895769;29;20230;-85
2021/08/25 03:11:20;;;;;;;0.95;0.70;;;;;;;10.82;87.27;101815.72;4880787;29;20060;-84
2021/08/25 03:13:53;;;;;;;0.60;0.57;;;;;;;10.97;87.38;101832.25;4897930;29;20053;-84
2021/08/25 03:16:29;;;;;;;0.70;0.50;;;;;;;10.96;88.36;101818.88;4903816;29;20053;-85
2021/08/25 03:19:02;;;;;;;1.05;0.80;;;;;;;11.04;85.12;101816.53;4884938;29;20055;-85
2021/08/25 03:21:35;;;;;;;0.80;0.60;;;;;;;11.11;85.43;101831.88;4897891;29;20512;-85
2021/08/25 03:24:09;;;;;;;0.90;0.70;;;;;;;11.09;87.23;101817.66;4873050;29;20394;-85
2021/08/25 03:26:42;;;;;;;0.65;0.55;;;;;;;11.16;83.96;101813.66;4889447;29;20049;-86
2021/08/25 03:29:15;;;;;;;0.50;0.50;;;;;;;11.29;83.81;101820.59;4894212;29;20052;-85
2021/08/25 03:31:50;;;;;;;0.95;0.60;;;;;;;11.31;84.32;101815.75;4890696;29;20049;-84
2021/08/25 03:34:18;;;;;;;0.80;0.60;;;;;;;11.30;86.37;101813.28;4891693;29;20044;-84
2021/08/25 03:36:52;;;;;;;0.50;0.50;;;;;;;11.26;86.03;101803.97;4890733;29;20064;-84
2021/08/25 03:39:25;;;;;;;0.60;0.50;;;;;;;11.28;85.13;101799.06;4913983;29;20056;-85
2021/08/25 03:41:58;;;;;;;0.80;0.63;;;;;;;11.21;85.08;101789.22;4901748;29;20072;-86
2021/08/25 03:44:31;;;;;;;0.63;0.60;;;;;;;11.32;83.76;101789.31;4879672;29;20049;-85
2021/08/25 03:47:07;;;;;;;0.50;0.50;;;;;;;11.31;85.87;101788.50;4871392;29;20083;-85
2021/08/25 03:49:42;;;;;;;1.08;0.50;;;;;;;11.28;87.73;101786.25;4885327;29;20053;-84
2021/08/25 03:52:15;;;;;;;0.85;0.70;;;;;;;11.10;85.10;101754.75;4885809;29;20064;-85
2021/08/25 03:54:43;;;;;;;0.63;0.50;;;;;;;11.35;84.20;101778.72;4892470;29;20057;-85
2021/08/25 03:57:17;;;;;;;0.60;0.60;;;;;;;11.39;85.75;101787.19;4879017;29;20413;-85
2021/08/25 03:59:50;;;;;;;0.68;0.52;;;;;;;11.42;83.00;101777.66;4897874;29;20060;-85
2021/08/25 04:02:19;;;;;;;1.02;0.70;;;;;;;11.50;81.99;101775.31;4887865;29;20056;-85
2021/08/25 04:04:53;;;;;;;1.52;0.80;;;;;;;11.49;82.65;101760.03;4886893;29;20060;-84
2021/08/25 04:07:26;;;;;;;1.00;0.90;;;;;;;11.66;82.82;101772.72;4891313;29;20504;-85
2021/08/25 04:09:59;;;;;;;0.98;0.68;;;;;;;11.53;84.09;101768.50;4884412;29;20052;-85
2021/08/25 04:12:32;;;;;;;2.70;0.80;;;;;;;11.58;84.60;101763.91;4875886;29;20049;-85
2021/08/25 04:15:07;;;;;;;1.38;0.90;;;;;;;11.83;84.56;101756.19;4875463;29;20055;-85
2021/08/25 04:17:41;;;;;;;3.13;1.00;;;;;;;11.73;85.16;101765.94;4886752;29;20056;-85
2021/08/25 04:20:14;;;;;;;2.08;0.90;;;;;;;11.53;86.97;101749.41;4898839;29;20052;-85
2021/08/25 04:22:47;;;;;;;1.20;0.80;;;;;;;11.62;88.20;101747.84;4884858;29;20052;-85
2021/08/25 04:25:16;;;;;;;1.58;1.10;;;;;;;11.64;88.28;101728.50;4895837;29;20065;-85
2021/08/25 04:27:49;;;;;;;2.13;1.10;;;;;;;11.65;89.15;101738.34;4880171;29;20049;-85
2021/08/25 04:30:17;;;;;;;1.23;0.90;;;;;;;11.48;89.47;101725.66;4878916;29;20057;-86
2021/08/25 04:32:47;;;;;;;3.72;1.10;;;;;;;11.46;90.44;101727.84;4880973;29;20049;-85
2021/08/25 04:35:15;;;;;;;1.55;1.10;;;;;;;11.46;91.43;101724.28;4886489;29;20073;-85
2021/08/25 04:37:43;;;;;;;1.55;1.08;;;;;;;11.47;92.04;101717.75;4885437;29;20056;-85
2021/08/25 04:40:12;;;;;;;3.03;1.20;;;;;;;11.48;92.17;101720.22;4904761;29;20056;-85
2021/08/25 04:42:45;;;;;;;1.33;1.02;;;;;;;11.38;92.85;101704.59;4883586;29;20055;-85
2021/08/25 04:45:18;;;;;;;2.08;1.10;;;;;;;11.39;93.45;101708.97;4868401;29;20061;-85
2021/08/25 04:47:53;;;;;;;1.95;1.15;;;;;;;11.42;93.89;101701.34;4892893;29;20542;-85
2021/08/25 04:50:26;;;;;;;2.10;1.10;;;;;;;11.37;93.71;101689.31;4897397;29;20406;-84
2021/08/25 04:52:59;;;;;;;2.80;1.10;;;;;;;11.43;94.59;101689.38;4897931;29;20044;-85
2021/08/25 04:55:32;;;;;;;1.42;1.10;;;;;;;11.51;94.70;101697.06;4882060;29;20052;-85
2021/08/25 04:58:06;;;;;;;2.30;1.27;;;;;;;11.43;94.71;101689.38;4903321;29;20052;-86
2021/08/25 05:00:40;;;;;;;2.28;1.20;;;;;;;11.50;95.36;101692.69;4897194;29;20796;-85
2021/08/25 05:03:14;;;;;;;1.92;1.23;;;;;;;11.46;95.57;101688.84;4887172;29;20044;-85
2021/08/25 05:05:43;;;;;;;1.90;1.30;;;;;;;11.39;95.14;101675.44;4902042;29;20052;-85
2021/08/25 05:08:16;;;;;;;1.55;1.08;;;;;;;11.45;94.82;101668.97;4878445;29;20065;-85
2021/08/25 05:10:49;;;;;;;2.28;1.33;;;;;;;11.37;95.25;101681.16;4878333;29;20057;-84
2021/08/25 05:13:22;;;;;;;1.90;1.10;;;;;;;11.36;94.98;101675.97;4883129;29;20501;-85
2021/08/25 05:15:56;;;;;;;3.03;1.20;;;;;;;11.33;95.05;101676.50;4889222;29;20052;-85
2021/08/25 05:18:31;;;;;;;2.35;1.20;;;;;;;11.09;95.20;101652.31;4878909;29;20418;-85
2021/08/25 05:21:04;;;;;;;3.08;1.20;;;;;;;11.32;95.42;101680.28;4880043;29;20532;-84
2021/08/25 05:23:32;;;;;;;2.38;1.35;;;;;;;11.22;95.87;101672.84;4905468;29;20390;-84
2021/08/25 05:26:01;;;;;;;1.73;1.10;;;;;;;11.25;95.89;101682.41;4891990;29;20056;-85
2021/08/25 05:29:30;;;;;;;2.05;1.20;;;;;;;11.35;96.37;101690.66;4904559;29;20052;-85
2021/08/25 05:36:30;;;;;;;;;;;;;;;11.35;96.89;101694.22;4884463;29;20064;-86
2021/08/25 05:39:03;;;;;;;2.08;1.42;;;;;;;11.36;96.49;101684.13;4875050;29;19924;-85
2021/08/25 05:41:36;;;;;;;2.63;1.48;;;;;;;11.29;97.10;101694.44;4892826;29;20053;-85
2021/08/25 05:44:14;;;;;;;1.80;1.40;;;;;;;11.20;97.38;101694.91;4878356;29;20063;-85
2021/08/25 05:46:42;;;;;;;3.70;1.38;;;;;;;11.43;97.09;101682.00;4878110;29;20064;-85
2021/08/25 05:49:11;;;;;;;2.42;1.52;;;;;;;11.55;96.37;101695.47;4893148;29;20498;-85
2021/08/25 05:51:40;;;;;;;1.65;1.13;;;;;;;11.73;95.75;101678.69;4881909;29;20061;-86
2021/08/25 05:54:14;;;;;;;1.70;1.20;;;;;;;11.92;95.34;101689.16;4893757;29;20509;-85
2021/08/25 05:56:47;;;;;;;2.05;1.13;;;;;;;12.13;95.80;101694.75;4877869;29;20075;-85
2021/08/25 05:59:20;;;;;;;2.75;1.20;;;;;;;12.10;94.83;101676.19;4878584;29;20065;-85
2021/08/25 06:01:58;;;;;;;1.63;1.10;;;;;;;12.21;94.83;101675.97;4877352;29;20056;-84
2021/08/25 06:04:26;;;;;;;1.90;1.10;;;;;;;12.31;94.43;101677.91;4892826;29;20049;-84
2021/08/25 06:06:55;;;;;;;3.08;1.10;;;;;;;12.22;94.67;101674.03;4886846;29;20446;-84
2021/08/25 06:09:29;;;;;;;2.97;1.15;;;;;;;12.15;94.79;101681.66;4876533;29;20064;-84
2021/08/25 06:12:02;;;;;;;2.20;1.10;;;;;;;12.15;95.54;101681.66;4893622;29;20433;-84
2021/08/25 06:14:38;;;;;;;2.55;1.08;;;;;;;12.27;95.39;101665.88;4897270;29;20053;-83
2021/08/25 06:17:06;;;;;;;3.25;1.20;;;;;;;12.39;95.41;101666.47;4882849;29;20055;-85
2021/08/25 06:19:35;;;;;;;1.67;1.10;;;;;;;12.52;94.61;101665.16;4898415;29;20053;-84
2021/08/25 06:22:16;;;;;;;1.83;1.20;;;;;;;12.62;94.61;101664.34;4886076;29;20053;-85
2021/08/25 06:24:48;;;;;;;1.75;1.17;;;;;;;12.75;94.45;101643.91;4891383;29;20049;-85
2021/08/25 06:27:16;;;;;;;2.67;1.30;;;;;;;12.87;93.63;101646.38;4896837;29;20505;-86
2021/08/25 06:29:48;;;;;;;2.03;1.10;;;;;;;12.91;93.64;101640.09;4896068;29;20061;-86
2021/08/25 06:32:23;;;;;;;1.98;1.20;;;;;;;12.98;94.89;101642.56;4880574;29;20070;-85
2021/08/25 06:34:58;;;;;;;1.52;1.10;;;;;;;13.17;95.25;101640.09;4892867;29;20056;-85
2021/08/25 06:37:33;;;;;;;1.85;1.20;;;;;;;13.06;95.13;101639.31;4896172;29;20077;-85
2021/08/25 06:40:07;;;;;;;2.13;1.27;;;;;;;13.41;94.75;101628.66;4877645;29;20426;-85
2021/08/25 06:42:42;;;;;;;3.00;1.48;;;;;;;13.66;94.46;101626.94;4880262;29;20474;-85
2021/08/25 06:45:11;;;;;;;1.58;1.10;;;;;;;13.58;93.78;101603.72;4895531;29;20513;-83
2021/08/25 06:47:46;;;;;;;3.58;1.25;;;;;;;13.76;93.52;101615.97;4895830;29;20048;-83
2021/08/25 06:50:20;;;;;;;2.08;1.10;;;;;;;14.09;94.78;101619.16;4882374;29;20805;-85
2021/08/25 06:52:55;;;;;;;1.30;1.05;;;;;;;14.10;92.66;101613.38;4886528;29;20060;-84
2021/08/25 06:55:26;;;;;;;1.85;1.30;;;;;;;14.12;92.52;101588.47;4903425;29;20577;-85
2021/08/25 06:58:27;;;;;;;1.70;1.20;;;;;;;14.37;92.28;101606.66;4885443;29;20595;-86
2021/08/25 07:00:57;;;;;;;1.63;1.20;;;;;;;14.43;91.56;101588.28;4889233;29;20060;-84
2021/08/25 07:03:32;;;;;;;2.13;1.13;;;;;;;14.53;93.43;101601.94;4888589;29;20293;-85
2021/08/25 07:06:06;;;;;;;2.20;1.20;;;;;;;14.69;91.23;101590.88;4890321;29;20063;-86
2021/08/25 07:08:41;;;;;;;1.75;1.20;;;;;;;14.74;91.20;101571.69;4875696;29;20076;-85
2021/08/25 07:11:18;;;;;;;2.08;1.40;;;;;;;15.10;90.81;101579.59;4896565;29;21886;-85
2021/08/25 07:13:51;;;;;;;1.90;1.27;;;;;;;15.05;91.15;101577.72;4894886;29;20057;-86
2021/08/25 07:16:34;;;;;;;1.17;0.90;;;;;;;14.90;91.39;101578.66;4884915;29;20075;-84
2021/08/25 07:19:06;;;;;;;2.25;1.35;;;;;;;14.64;91.44;101578.06;4901052;29;20055;-86
2021/08/25 07:21:42;;;;;;;1.40;1.10;;;;;;;14.40;91.75;101525.88;4896093;29;20060;-89
2021/08/25 07:24:16;;;;;;;2.10;1.20;;;;;;;14.63;92.52;101565.44;4886236;29;20067;-86
2021/08/25 07:26:49;;;;;;;1.17;1.02;;;;;;;15.02;91.71;101559.09;4885497;29;20064;-84
2021/08/25 07:29:22;;;;;;;1.70;1.05;;;;;;;15.04;90.87;101543.19;4889304;29;20064;-86
2021/08/25 07:32:00;;;;;;;1.20;1.10;;;;;;;15.05;90.86;101533.88;4875373;29;20078;-85
2021/08/25 07:34:28;;;;;;;;;;;;;;;15.13;90.57;101543.38;4892572;29;20060;-85
2021/08/25 07:37:02;;;;;;;1.73;1.10;;;;;;;15.18;90.55;101526.03;4890933;29;21325;-84
2021/08/25 07:39:37;;;;;;;2.40;1.25;;;;;;;15.37;90.28;101528.84;4889246;29;20068;-84
2021/08/25 07:42:10;;;;;;;1.45;0.90;;;;;;;15.54;90.17;101515.50;4878227;29;20064;-86
2021/08/25 07:45:09;;;;;;;1.83;1.23;;;;;;;15.83;88.97;101500.88;4878028;29;20774;-84
2021/08/25 07:47:38;;;;;;;1.77;0.95;;;;;;;15.76;88.13;101503.97;4875534;29;20065;-84
2021/08/25 07:50:14;;;;;;;2.28;1.00;;;;;;;16.00;89.56;101492.13;4871425;29;20924;-83
2021/08/25 07:52:43;;;;;;;1.95;1.00;;;;;;;15.86;87.73;101499.50;4887293;29;20075;-86
2021/08/25 07:55:19;;;;;;;1.30;0.90;;;;;;;15.72;87.31;101494.69;4877170;29;20059;-84
2021/08/25 07:57:50;;;;;;;0.80;0.68;;;;;;;15.60;89.18;101470.41;4875658;29;20064;-86
2021/08/25 08:00:25;;;;;;;0.82;0.70;;;;;;;15.98;86.89;101497.94;4869999;29;20060;-84
2021/08/25 08:02:59;;;;;;;0.95;0.70;;;;;;;15.98;86.67;101451.25;4877911;29;20422;-86
2021/08/25 08:05:30;;;;;;;0.85;0.65;;;;;;;16.02;85.10;101440.50;4882094;29;20516;-85
2021/08/25 08:07:58;;;;;;;1.30;0.60;;;;;;;16.25;82.84;101463.47;4886839;29;20044;-88
2021/08/25 08:10:40;;;;;;;0.50;0.40;;;;;;;16.14;82.67;101431.78;4907791;29;20056;-92
2021/08/25 08:13:09;;;;;;;0.98;0.50;;;;;;;16.47;80.36;101465.59;4884726;29;20057;-87
2021/08/25 08:15:44;;;;;;;0.30;0.30;;;;;;;16.70;80.60;101482.25;4874930;29;20059;-86
2021/08/25 08:18:32;;;;;;;0.40;0.40;;;;;;;16.55;80.26;101488.81;4878181;29;20473;-84
2021/08/25 08:21:07;;;;;;;0.40;0.40;;;;;;;16.33;80.57;101479.25;4883126;29;20401;-84
2021/08/25 08:23:48;;;;;;;0.43;0.40;;;;;;;16.31;79.21;101484.25;4890302;29;20789;-85
2021/08/25 08:26:18;;;;;;;0.50;0.40;;;;;;;16.61;80.68;101464.81;4886804;29;20342;-86
2021/08/25 08:28:48;;;;;;;0.30;0.30;;;;;;;16.24;78.62;101436.31;4883700;29;20059;-85
2021/08/25 08:31:17;;;;;;;1.80;0.40;;;;;;;16.69;79.06;101458.63;4890869;29;20064;-85
2021/08/25 08:33:46;;;;;;;0.40;0.40;;;;;;;16.74;79.69;101461.28;4875927;29;21872;-85
2021/08/25 08:36:15;;;;;;;0.75;0.32;;;;;;;16.90;78.63;101486.56;4892409;29;20071;-85
2021/08/25 08:38:53;;;;;;;0.82;0.40;;;;;;;16.72;79.86;101488.22;4894215;29;21312;-86
2021/08/25 08:41:25;;;;;;;0.55;0.40;;;;;;;16.55;79.58;101468.78;4872228;29;20852;-86
2021/08/25 08:44:00;;;;;;;0.40;0.30;;;;;;;16.56;78.56;101479.47;4892018;29;20065;-84
2021/08/25 08:46:29;;;;;;;0.98;0.65;;;;;;;16.64;78.64;101466.94;4896910;29;20049;-83
2021/08/25 08:48:59;;;;;;;0.38;0.30;;;;;;;16.67;77.18;101475.41;4877402;29;21048;-85
2021/08/25 08:51:28;;;;;;;0.45;0.30;;;;;;;16.59;78.81;101475.28;4875616;29;20055;-84
2021/08/25 08:54:02;;;;;;;0.50;0.32;;;;;;;16.74;79.30;101469.53;4877613;29;20049;-84
2021/08/25 08:56:33;;;;;;;1.05;0.40;;;;;;;16.37;79.19;101385.28;4875471;29;20071;-85
2021/08/25 08:59:04;;;;;;;0.95;0.50;;;;;;;16.83;77.65;101431.97;4895567;29;20067;-83
2021/08/25 09:02:03;;;;;;;1.55;0.50;;;;;;;17.04;78.34;101448.13;4878600;29;20068;-84
2021/08/25 09:04:32;;;;;;;1.00;0.30;;;;;;;17.05;76.61;101443.44;4875560;29;20056;-86
2021/08/25 09:07:03;;;;;;;0.40;0.30;;;;;;;16.96;75.70;101394.63;4881777;29;20052;-86
2021/08/25 09:09:54;;;;;;;0.60;0.20;;;;;;;17.28;74.82;101436.91;4895089;29;20063;-86
2021/08/25 09:12:24;;;;;;;0.82;0.40;;;;;;;17.30;76.62;101418.16;4878111;29;20060;-85
2021/08/25 09:14:57;;;;;;;0.22;0.20;;;;;;;17.37;77.05;101412.22;4876791;29;20052;-84
2021/08/25 09:17:27;;;;;;;0.68;0.30;;;;;;;17.36;76.34;101418.88;4879834;29;20056;-83
2021/08/25 09:20:09;;;;;;;0.30;0.30;;;;;;;17.29;74.42;101421.19;4878140;29;20064;-87
2021/08/25 09:22:39;;;;;;;2.47;1.15;;;;;;;17.68;75.31;101414.31;4891551;29;20060;-87
2021/08/25 09:25:30;;;;;;;0.40;0.40;;;;;;;17.77;75.22;101390.44;4879634;29;20052;-86
2021/08/25 09:28:07;;;;;;;0.60;0.35;;;;;;;17.71;76.62;101374.34;4878834;29;20413;-87
2021/08/25 09:30:56;;;;;;;0.30;0.30;;;;;;;17.94;72.51;101389.78;4875409;29;20064;-86
2021/08/25 09:33:32;;;;;;;0.60;0.30;;;;;;;17.67;71.83;101385.94;4880045;29;20052;-87
2021/08/25 09:36:19;;;;;;;1.23;0.32;;;;;;;17.50;73.47;101377.56;4880147;29;20061;-87
2021/08/25 09:38:55;;;;;;;0.50;0.30;;;;;;;17.33;75.07;101372.69;4899491;29;20067;-86
2021/08/25 09:41:28;;;;;;;0.40;0.35;;;;;;;17.31;76.35;101364.75;4876337;29;20091;-86
2021/08/25 09:44:14;;;;;;;0.50;0.30;;;;;;;17.36;74.47;101360.25;4880878;29;20064;-87
2021/08/25 09:46:50;;;;;;;0.77;0.35;;;;;;;17.23;74.06;101357.22;4894265;29;20061;-86
2021/08/25 09:50:06;;;;;;;0.30;0.30;;;;;;;17.09;75.33;101372.94;4875825;29;20469;-87
2021/08/25 09:52:39;;;;;;;0.70;0.30;;;;;;;16.98;75.61;101348.38;4879250;29;20056;-87
2021/08/25 09:55:08;;;;;;;0.20;0.20;;;;;;;16.96;75.63;101344.34;4874081;29;20057;-87
2021/08/25 09:57:43;;;;;;;0.50;0.30;;;;;;;16.90;77.67;101346.38;4879495;29;20053;-86
2021/08/25 10:00:19;;;;;;;0.45;0.30;;;;;;;17.16;76.70;101334.84;4876042;29;20049;-87
2021/08/25 10:02:54;;;;;;;0.75;0.30;;;;;;;17.29;76.02;101335.91;4892897;29;20057;-86
2021/08/25 10:05:25;;;;;;;0.22;0.20;;;;;;;17.29;74.03;101341.41;4900792;29;20064;-85
2021/08/25 10:07:54;;;;;;;2.28;1.45;;;;;;;17.48;73.60;101330.25;4901562;29;20564;-86
2021/08/25 10:10:26;;;;;;;0.30;0.30;;;;;;;17.60;73.30;101321.47;4898372;29;20067;-87
2021/08/25 10:13:02;;;;;;;0.30;0.30;;;;;;;17.64;72.39;101323.28;4882589;29;20052;-85
2021/08/25 10:15:45;;;;;;;2.05;0.52;;;;;;;18.24;70.45;101315.72;4887909;29;20056;-86
2021/08/25 10:18:25;;;;;;;0.82;0.30;;;;;;;18.08;70.15;101315.34;4880499;29;20060;-86
2021/08/25 10:20:58;;;;;;;1.02;0.30;;;;;;;17.98;72.12;101308.16;4894517;29;20064;-85
2021/08/25 10:24:02;;;;;;;0.28;0.20;;;;;;;17.61;71.22;101312.09;4881368;29;20627;-86
2021/08/25 10:26:31;;;;;;;0.70;0.30;;;;;;;17.37;73.75;101312.38;4875855;29;20060;-86
2021/08/25 10:29:09;;;;;;;0.43;0.30;;;;;;;17.05;74.99;101301.22;4878752;29;20061;-85
2021/08/25 10:32:18;;;;;;;0.45;0.30;;;;;;;17.11;76.05;101300.00;4881742;29;20386;-86
2021/08/25 10:35:19;;;;;;;0.60;0.30;;;;;;;16.79;76.91;101298.19;4898617;29;20064;-85
2021/08/25 10:37:53;;;;;;;1.52;0.30;;;;;;;16.97;75.96;101282.72;4895451;29;21235;-88
2021/08/25 10:40:33;;;;;;;0.40;0.30;;;;;;;16.93;76.80;101281.69;4896172;29;20071;-89
2021/08/25 10:43:07;;;;;;;0.30;0.30;;;;;;;16.69;77.76;101290.16;4879785;29;20052;-86
2021/08/25 10:45:57;;;;;;;0.40;0.35;;;;;;;16.64;77.51;101275.41;4879882;29;20056;-86
2021/08/25 10:48:50;;;;;;;0.55;0.30;;;;;;;16.73;76.07;101281.00;4883522;29;20064;-87
2021/08/25 10:51:46;;;;;;;0.75;0.28;;;;;;;16.74;77.15;101274.38;4877608;29;20091;-87
2021/08/25 10:54:28;;;;;;;1.17;0.40;;;;;;;16.78;75.33;101267.16;4891169;29;20056;-86
2021/08/25 10:57:11;;;;;;;0.70;0.50;;;;;;;16.96;77.05;101264.63;4896903;29;20060;-87
2021/08/25 10:59:51;;;;;;;0.32;0.20;;;;;;;16.86;74.97;101246.34;4877967;29;20847;-88
2021/08/25 11:02:20;;;;;;;0.20;0.20;;;;;;;17.05;77.22;101242.69;4894124;29;20617;-88
2021/08/25 11:05:01;;;;;;;0.50;0.28;;;;;;;17.07;73.81;101241.25;4882740;29;20076;-87
2021/08/25 11:07:45;;;;;;;0.57;0.30;;;;;;;16.86;73.99;101229.06;4881540;29;20041;-88
2021/08/25 11:10:23;;;;;;;0.88;0.30;;;;;;;17.11;75.68;101234.00;4875978;29;20061;-87
2021/08/25 11:12:55;;;;;;;0.35;0.35;;;;;;;17.27;74.78;101237.19;4893797;29;20421;-87
2021/08/25 11:15:31;;;;;;;0.57;0.30;;;;;;;16.57;73.60;101164.28;4892721;29;20068;-87
2021/08/25 11:18:01;;;;;;;0.20;0.20;;;;;;;16.97;73.78;101181.00;4877954;29;20067;-88
2021/08/25 11:20:33;;;;;;;0.32;0.30;;;;;;;17.14;74.34;101175.63;4898021;29;20072;-87
2021/08/25 11:23:01;;;;;;;0.47;0.22;;;;;;;17.28;72.65;101185.78;4905508;29;20056;-87
2021/08/25 11:25:35;;;;;;;0.22;0.20;;;;;;;17.54;70.51;101171.34;4883291;29;20070;-87
2021/08/25 11:28:20;;;;;;;0.20;0.20;;;;;;;18.10;73.72;101164.34;4888818;29;20548;-85
2021/08/25 11:30:49;;;;;;;0.63;0.30;;;;;;;17.91;71.19;101152.75;4902932;29;20067;-86
2021/08/25 11:33:18;;;;;;;1.08;0.35;;;;;;;17.72;70.63;101142.81;4888442;29;20734;-86
2021/08/25 11:36:02;;;;;;;0.22;0.22;;;;;;;17.84;70.84;101150.44;4890834;29;20048;-86
2021/08/25 11:38:36;;;;;;;0.70;0.30;;;;;;;17.47;71.99;101155.31;4902271;29;20060;-87
2021/08/25 11:41:08;;;;;;;0.20;0.20;;;;;;;17.21;72.10;101155.94;4885966;29;20071;-85
2021/08/25 11:43:46;;;;;;;0.68;0.30;;;;;;;17.12;72.76;101158.66;4886050;29;20426;-87
2021/08/25 11:46:24;;;;;;;0.20;0.20;;;;;;;17.13;72.83;101153.94;4885869;29;20060;-84
2021/08/25 11:49:00;;;;;;;0.80;0.30;;;;;;;17.21;72.13;101160.63;4888507;29;20068;-86
2021/08/25 11:51:38;;;;;;;0.30;0.28;;;;;;;17.34;71.63;101144.06;4884431;29;20071;-85
2021/08/25 11:54:11;;;;;;;0.30;0.30;;;;;;;17.47;71.41;101153.34;4888288;29;20053;-86
2021/08/25 11:57:12;;;;;;;1.00;0.55;;;;;;;17.25;74.41;101161.63;4901464;29;20053;-84
2021/08/25 11:59:56;;;;;;;0.20;0.20;;;;;;;17.14;73.38;101137.13;4897607;29;20450;-84
2021/08/25 12:02:55;;;;;;;0.28;0.28;;;;;;;17.06;73.28;101150.84;4892301;29;20056;-85
2021/08/25 12:05:50;;;;;;;0.20;0.20;;;;;;;16.97;74.39;101140.59;4884977;29;20060;-86